Time;durP1;ratioP1;P1;durP2;ratioP2;P2;SDS_P1;SDS_P2;PMS_P1;PMS_P2;Temp;Humidity;BMP_temperature;BMP_pressure;BME280_temperature;BME280_humidity;BME280_pressure;Samples;Min_cycle;Max_cycle;Signal;HPM_P1;HPM_P2
2023/09/15 03:55:00;;;;;;;4.72;4.22;;;21.70;72.30;;;;;;5021836;28;20046;-77
2023/09/15 03:57:27;;;;;;;5.10;4.43;;;21.70;72.30;;;;;;5013139;28;20045;-76
2023/09/15 03:59:53;;;;;;;5.75;4.80;;;21.80;72.20;;;;;;5013257;28;20384;-77
2023/09/15 04:02:18;;;;;;;6.38;4.90;;;21.80;72.10;;;;;;5013493;28;20148;-77
2023/09/15 04:04:44;;;;;;;4.75;4.25;;;21.80;72.10;;;;;;5025371;28;20027;-78
2023/09/15 04:07:09;;;;;;;6.13;4.70;;;21.80;72.20;;;;;;5012962;28;20030;-77
2023/09/15 04:09:35;;;;;;;8.55;5.03;;;21.80;72.20;;;;;;5016268;28;20392;-79
2023/09/15 04:12:03;;;;;;;6.38;5.00;;;21.90;72.10;;;;;;5013385;28;20037;-81
2023/09/15 04:14:34;;;;;;;4.93;4.45;;;21.90;72.00;;;;;;5012460;28;20044;-80
2023/09/15 04:17:00;;;;;;;7.68;5.30;;;21.90;72.10;;;;;;5013521;28;20030;-85
2023/09/15 04:19:25;;;;;;;7.18;4.88;;;21.90;72.20;;;;;;5015786;28;20103;-78
2023/09/15 04:21:51;;;;;;;6.50;4.78;;;21.90;72.10;;;;;;5016670;28;20030;-74
2023/09/15 04:24:16;;;;;;;5.63;4.93;;;21.90;72.20;;;;;;5025181;28;20045;-77
2023/09/15 04:26:42;;;;;;;7.03;4.63;;;21.90;72.20;;;;;;5020827;28;20036;-84
2023/09/15 04:29:09;;;;;;;9.23;4.78;;;21.90;72.90;;;;;;5026354;28;20076;-74
2023/09/15 04:31:37;;;;;;;8.00;4.57;;;22.00;72.50;;;;;;5016030;28;20084;-72
2023/09/15 04:34:03;;;;;;;328.33;292.42;;;22.00;72.40;;;;;;5016531;28;20021;-75
2023/09/15 04:36:30;;;;;;;9.38;5.20;;;22.10;72.40;;;;;;5025230;28;20182;-74
2023/09/15 04:38:56;;;;;;;8.30;4.82;;;22.10;72.30;;;;;;5016045;28;20417;-74
2023/09/15 04:41:22;;;;;;;6.97;4.95;;;22.20;72.20;;;;;;5030222;28;20068;-73
2023/09/15 04:43:47;;;;;;;6.25;4.80;;;22.20;72.20;;;;;;5033666;28;20029;-71
2023/09/15 04:46:13;;;;;;;6.45;4.93;;;22.20;72.20;;;;;;5024198;28;20026;-72
2023/09/15 04:48:39;;;;;;;8.68;5.15;;;22.20;72.20;;;;;;5038696;28;20072;-77
2023/09/15 04:51:05;;;;;;;9.98;5.03;;;22.20;72.50;;;;;;5037749;28;20029;-84
2023/09/15 04:53:32;;;;;;;4.85;4.35;;;22.20;72.20;;;;;;5044869;28;20114;-77
2023/09/15 04:55:58;;;;;;;6.30;4.30;;;22.20;72.30;;;;;;5019802;28;20044;-85
2023/09/15 04:58:23;;;;;;;5.75;4.75;;;22.20;72.30;;;;;;5027755;28;20029;-76
2023/09/15 05:00:49;;;;;;;7.70;4.97;;;22.20;72.30;;;;;;5023940;28;20017;-75
2023/09/15 05:03:14;;;;;;;7.30;5.20;;;22.30;72.30;;;;;;5044237;28;20412;-75
2023/09/15 05:05:41;;;;;;;76.22;68.22;;;22.30;72.20;;;;;;5042646;28;20027;-75
2023/09/15 05:08:07;;;;;;;10.98;9.15;;;22.30;72.30;;;;;;5042133;28;20418;-75
2023/09/15 05:10:33;;;;;;;7.60;5.35;;;22.30;72.40;;;;;;5042220;28;20443;-74
2023/09/15 05:13:00;;;;;;;6.20;4.90;;;22.30;72.30;;;;;;5045805;28;20021;-76
2023/09/15 05:15:26;;;;;;;6.07;5.15;;;22.40;72.30;;;;;;5041599;28;20413;-72
2023/09/15 05:17:51;;;;;;;6.35;5.57;;;22.40;72.10;;;;;;5043661;28;20034;-72
2023/09/15 05:20:17;;;;;;;7.63;5.32;;;22.50;72.10;;;;;;5029856;28;20030;-73
2023/09/15 05:22:43;;;;;;;7.82;5.93;;;22.50;71.90;;;;;;5022772;28;20029;-72
2023/09/15 05:25:08;;;;;;;10.07;6.10;;;22.40;71.90;;;;;;5035084;28;20022;-73
2023/09/15 05:27:34;;;;;;;6.40;5.80;;;22.40;72.00;;;;;;5035054;28;20068;-72
2023/09/15 05:30:00;;;;;;;6.13;5.00;;;22.50;72.00;;;;;;5034048;28;20026;-73
2023/09/15 05:32:25;;;;;;;7.10;6.10;;;22.50;72.00;;;;;;5028471;28;20038;-73
2023/09/15 05:34:51;;;;;;;7.85;5.97;;;22.50;72.00;;;;;;5015209;28;20056;-73
2023/09/15 05:37:16;;;;;;;7.60;5.88;;;22.50;72.00;;;;;;5015345;28;20101;-73
2023/09/15 05:39:42;;;;;;;7.35;5.85;;;22.40;72.00;;;;;;5015120;28;20026;-72
2023/09/15 05:42:08;;;;;;;8.00;6.00;;;22.40;72.10;;;;;;5017292;28;20033;-73
2023/09/15 05:44:35;;;;;;;6.45;5.78;;;22.40;72.20;;;;;;5033651;28;20045;-73
2023/09/15 05:47:00;;;;;;;8.63;6.45;;;22.40;72.20;;;;;;5034820;28;20091;-72
2023/09/15 05:49:26;;;;;;;8.82;7.93;;;22.40;72.30;;;;;;5029250;28;20060;-73
2023/09/15 05:51:52;;;;;;;22.25;19.48;;;22.40;72.30;;;;;;5025280;28;20030;-73
2023/09/15 05:54:17;;;;;;;9.02;7.68;;;22.30;72.50;;;;;;5049275;28;20062;-73
2023/09/15 05:56:43;;;;;;;10.88;8.68;;;22.30;72.60;;;;;;5039995;28;20025;-72
2023/09/15 05:59:09;;;;;;;9.98;8.98;;;22.30;72.70;;;;;;5034462;28;20503;-72
2023/09/15 06:01:34;;;;;;;9.80;8.25;;;22.30;72.70;;;;;;5034292;28;20060;-75
2023/09/15 06:04:00;;;;;;;10.80;9.70;;;22.30;72.80;;;;;;5016787;28;20046;-73
2023/09/15 06:06:26;;;;;;;9.73;8.27;;;22.20;72.80;;;;;;5017934;28;20022;-73
2023/09/15 06:08:52;;;;;;;10.25;9.10;;;22.20;72.90;;;;;;5019025;28;20033;-73
2023/09/15 06:11:17;;;;;;;9.90;8.63;;;22.10;73.00;;;;;;5014539;28;20041;-75
2023/09/15 06:13:43;;;;;;;7.97;7.18;;;22.20;73.10;;;;;;5028350;28;20033;-74
2023/09/15 06:16:09;;;;;;;9.07;8.18;;;22.20;73.20;;;;;;5038256;28;20022;-74
2023/09/15 06:18:35;;;;;;;12.30;10.82;;;22.20;73.20;;;;;;5022734;28;20022;-73
2023/09/15 06:21:00;;;;;;;11.93;9.63;;;22.20;73.30;;;;;;5018099;28;20033;-73
2023/09/15 06:23:26;;;;;;;11.77;9.48;;;22.20;73.20;;;;;;5032297;28;20356;-74
2023/09/15 06:25:52;;;;;;;10.05;9.05;;;22.10;73.30;;;;;;5026245;28;20050;-73
2023/09/15 06:28:17;;;;;;;9.90;8.90;;;22.10;73.40;;;;;;5021218;28;20033;-73
2023/09/15 06:30:43;;;;;;;9.70;8.70;;;22.20;73.40;;;;;;5014138;28;20044;-73
2023/09/15 06:33:09;;;;;;;11.05;9.95;;;22.20;73.50;;;;;;5014140;28;20456;-73
2023/09/15 06:35:35;;;;;;;9.55;8.52;;;22.30;73.40;;;;;;5014131;28;20026;-73
2023/09/15 06:38:02;;;;;;;10.43;9.13;;;22.50;73.20;;;;;;5032814;28;20378;-74
2023/09/15 06:40:29;;;;;;;9.70;8.70;;;22.50;73.00;;;;;;5031778;28;20037;-73
2023/09/15 06:42:54;;;;;;;10.27;9.18;;;22.50;72.80;;;;;;5033191;28;20022;-73
2023/09/15 06:45:20;;;;;;;10.05;8.95;;;22.50;72.70;;;;;;5033225;28;20025;-73
2023/09/15 06:47:46;;;;;;;11.73;10.18;;;22.50;72.90;;;;;;5019477;28;20100;-74
2023/09/15 06:50:11;;;;;;;10.48;9.38;;;22.60;73.00;;;;;;5013513;28;20034;-73
2023/09/15 06:52:37;;;;;;;9.73;8.73;;;22.60;72.90;;;;;;5012795;28;20030;-72
2023/09/15 06:55:03;;;;;;;9.70;8.57;;;22.70;72.90;;;;;;5013679;28;20056;-72
2023/09/15 06:57:28;;;;;;;9.90;8.90;;;22.70;72.70;;;;;;5014896;28;20113;-76
2023/09/15 06:59:54;;;;;;;10.38;9.25;;;22.80;72.60;;;;;;5012411;28;20112;-76
2023/09/15 07:02:20;;;;;;;9.35;8.45;;;22.80;72.50;;;;;;5012363;28;20030;-76
2023/09/15 07:04:45;;;;;;;9.32;8.43;;;22.90;72.40;;;;;;5013813;28;20026;-77
2023/09/15 07:07:11;;;;;;;8.95;8.05;;;22.90;72.30;;;;;;5014404;28;20472;-76
2023/09/15 07:09:37;;;;;;;9.18;8.18;;;22.90;72.20;;;;;;5013889;28;20026;-76
2023/09/15 07:12:04;;;;;;;7.88;7.07;;;22.90;72.00;;;;;;5031764;28;20041;-76
2023/09/15 07:14:29;;;;;;;8.02;7.22;;;22.90;72.00;;;;;;5033281;28;20037;-77
2023/09/15 07:16:55;;;;;;;7.75;6.90;;;22.90;71.90;;;;;;5023757;28;20052;-77
2023/09/15 07:19:20;;;;;;;8.45;6.22;;;22.90;71.90;;;;;;5013655;28;20026;-77
2023/09/15 07:21:47;;;;;;;6.60;5.90;;;22.90;71.80;;;;;;5013451;28;20030;-77
2023/09/15 07:24:13;;;;;;;5.78;5.18;;;22.90;71.80;;;;;;5013575;28;20026;-77
2023/09/15 07:26:38;;;;;;;6.10;5.50;;;23.00;71.80;;;;;;5013021;28;20037;-76
2023/09/15 07:29:04;;;;;;;5.63;5.03;;;23.00;71.60;;;;;;5028995;28;20055;-77
2023/09/15 07:31:34;;;;;;;7.90;5.53;;;23.10;71.40;;;;;;5032847;28;20472;-77
2023/09/15 07:34:00;;;;;;;6.15;5.55;;;23.20;71.00;;;;;;5033871;28;20030;-77
2023/09/15 07:36:26;;;;;;;5.50;5.00;;;23.20;70.90;;;;;;5028315;28;20034;-77
2023/09/15 07:38:52;;;;;;;6.15;5.55;;;23.10;70.60;;;;;;5013399;28;20037;-77
2023/09/15 07:41:18;;;;;;;5.95;5.35;;;23.10;70.70;;;;;;5013191;28;20467;-77
2023/09/15 07:43:45;;;;;;;5.50;5.00;;;23.10;70.70;;;;;;5013481;28;20053;-77
2023/09/15 07:46:12;;;;;;;5.60;5.07;;;23.10;70.70;;;;;;5014004;28;20029;-77
2023/09/15 07:48:38;;;;;;;5.68;5.18;;;23.00;70.60;;;;;;5013500;28;20026;-77
2023/09/15 07:51:03;;;;;;;5.72;5.22;;;23.00;70.70;;;;;;5022201;28;20163;-77
2023/09/15 07:53:29;;;;;;;5.50;5.00;;;23.00;70.70;;;;;;5034292;28;20064;-77
2023/09/15 07:55:54;;;;;;;5.20;4.70;;;23.00;70.50;;;;;;5036424;28;20104;-76
2023/09/15 07:58:20;;;;;;;5.50;4.43;;;23.00;70.40;;;;;;5016846;28;20029;-76
2023/09/15 08:00:46;;;;;;;5.10;4.60;;;23.00;70.40;;;;;;5016846;28;20026;-76
2023/09/15 08:03:12;;;;;;;5.20;4.70;;;23.00;70.40;;;;;;5017385;28;20491;-77
2023/09/15 08:05:37;;;;;;;4.78;4.25;;;23.10;70.40;;;;;;5017090;28;20113;-77
2023/09/15 08:08:03;;;;;;;5.35;4.63;;;23.10;70.30;;;;;;5032925;28;20422;-77
2023/09/15 08:10:29;;;;;;;5.20;4.30;;;23.10;70.20;;;;;;5036588;28;20361;-77
2023/09/15 08:12:55;;;;;;;4.90;4.30;;;23.10;70.10;;;;;;5036430;28;20498;-77
2023/09/15 08:15:22;;;;;;;4.05;3.65;;;23.10;70.20;;;;;;5036373;28;20022;-76
2023/09/15 08:17:48;;;;;;;4.90;4.32;;;23.20;70.30;;;;;;5021420;28;20033;-77
2023/09/15 08:20:14;;;;;;;4.40;4.00;;;23.20;70.10;;;;;;5016720;28;20076;-77
2023/09/15 08:22:41;;;;;;;4.32;3.92;;;23.20;69.90;;;;;;5016249;28;20037;-77
2023/09/15 08:25:07;;;;;;;4.10;3.70;;;23.30;69.90;;;;;;5016381;28;20053;-77
2023/09/15 08:27:34;;;;;;;4.82;4.28;;;23.30;69.80;;;;;;5017315;28;20112;-77
2023/09/15 08:30:00;;;;;;;5.00;4.50;;;23.30;69.50;;;;;;5032623;28;20034;-77
2023/09/15 08:32:26;;;;;;;4.88;4.38;;;23.30;69.50;;;;;;5035315;28;20048;-77
2023/09/15 08:34:53;;;;;;;4.93;4.43;;;23.30;70.00;;;;;;5036245;28;20033;-77
2023/09/15 08:37:19;;;;;;;5.05;4.55;;;23.30;69.40;;;;;;5025572;28;20022;-77
2023/09/15 08:39:46;;;;;;;4.63;4.22;;;23.40;69.40;;;;;;5016241;28;20034;-76
2023/09/15 08:42:23;;;;;;;5.50;4.72;;;23.40;69.40;;;;;;5017171;28;20156;-77
2023/09/15 08:44:49;;;;;;;4.60;4.10;;;23.40;69.30;;;;;;5014980;28;20029;-77
2023/09/15 08:47:17;;;;;;;5.15;4.65;;;23.40;69.20;;;;;;5025544;28;20030;-77
2023/09/15 08:49:44;;;;;;;5.55;4.75;;;23.40;69.40;;;;;;5034626;28;20160;-77
2023/09/15 08:52:11;;;;;;;5.93;4.60;;;23.40;69.20;;;;;;5035766;28;20049;-77
2023/09/15 08:54:37;;;;;;;5.70;4.65;;;23.40;69.30;;;;;;5036285;28;20068;-77
2023/09/15 08:57:03;;;;;;;5.35;4.60;;;23.40;69.30;;;;;;5027733;28;20104;-77
2023/09/15 08:59:31;;;;;;;5.13;4.60;;;23.40;69.20;;;;;;5015928;28;20445;-78
2023/09/15 09:01:57;;;;;;;5.97;4.47;;;23.50;69.30;;;;;;5016075;28;20034;-77
2023/09/15 09:04:23;;;;;;;4.75;4.25;;;23.50;69.20;;;;;;5014857;28;20030;-77
2023/09/15 09:06:50;;;;;;;4.93;4.43;;;23.50;69.00;;;;;;5016849;28;20037;-77
2023/09/15 09:09:16;;;;;;;5.10;4.53;;;23.50;69.00;;;;;;5015628;28;20034;-77
2023/09/15 09:11:42;;;;;;;7.10;4.50;;;23.40;69.00;;;;;;5014253;28;20041;-77
2023/09/15 09:14:11;;;;;;;6.72;4.80;;;23.30;69.00;;;;;;5014530;28;20525;-77
2023/09/15 09:16:47;;;;;;;5.35;4.82;;;23.40;69.20;;;;;;5030572;28;20387;-77
2023/09/15 09:19:13;;;;;;;5.65;5.10;;;23.30;69.10;;;;;;5034326;28;20029;-76
2023/09/15 09:21:39;;;;;;;6.13;4.90;;;23.30;69.10;;;;;;5035313;28;20095;-77
2023/09/15 09:24:06;;;;;;;5.32;4.82;;;23.30;69.10;;;;;;5015808;28;20053;-77
2023/09/15 09:26:32;;;;;;;5.47;4.85;;;23.30;69.10;;;;;;5015479;28;20033;-77
2023/09/15 09:28:58;;;;;;;6.00;5.15;;;23.30;69.10;;;;;;5015395;28;20380;-76
2023/09/15 09:31:25;;;;;;;6.63;5.25;;;23.30;69.10;;;;;;5015484;28;20049;-77
2023/09/15 09:33:52;;;;;;;5.38;4.88;;;23.30;69.10;;;;;;5030023;28;20025;-77
2023/09/15 09:36:18;;;;;;;6.05;5.25;;;23.30;69.10;;;;;;5033592;28;20494;-77
2023/09/15 09:38:47;;;;;;;6.05;5.18;;;23.30;69.10;;;;;;5034709;28;20049;-76
2023/09/15 09:41:13;;;;;;;6.15;5.25;;;23.30;69.20;;;;;;5033184;28;20495;-76
2023/09/15 09:43:41;;;;;;;5.80;5.20;;;23.30;69.20;;;;;;5034901;28;20103;-76
2023/09/15 09:46:08;;;;;;;6.35;5.30;;;23.30;69.30;;;;;;5019301;28;20036;-76
2023/09/15 09:48:35;;;;;;;5.50;4.95;;;23.20;69.90;;;;;;5014892;28;20366;-76
2023/09/15 09:51:05;;;;;;;5.47;4.85;;;23.30;69.40;;;;;;5021032;28;20460;-77
2023/09/15 09:53:34;;;;;;;5.68;5.07;;;23.40;69.30;;;;;;5034596;28;20069;-76
2023/09/15 09:56:07;;;;;;;6.22;4.85;;;23.50;69.20;;;;;;5034610;28;20114;-76
2023/09/15 09:58:38;;;;;;;6.32;4.75;;;23.50;69.10;;;;;;5033644;28;20419;-76
2023/09/15 10:01:06;;;;;;;5.75;5.15;;;23.60;69.00;;;;;;5033044;28;20029;-76
2023/09/15 10:03:33;;;;;;;5.40;4.90;;;23.60;68.90;;;;;;5034394;28;20022;-77
2023/09/15 10:05:59;;;;;;;6.70;5.10;;;23.50;68.70;;;;;;5021364;28;20045;-77
2023/09/15 10:08:26;;;;;;;5.95;4.20;;;23.50;68.60;;;;;;5014359;28;20030;-77
2023/09/15 10:10:53;;;;;;;5.28;4.68;;;23.50;68.60;;;;;;5019047;28;20025;-76
2023/09/15 10:13:19;;;;;;;5.75;4.50;;;23.50;68.60;;;;;;5034278;28;20309;-76
2023/09/15 10:15:46;;;;;;;5.40;4.90;;;23.50;68.60;;;;;;5033669;28;20075;-77
2023/09/15 10:18:14;;;;;;;5.47;4.90;;;23.40;68.50;;;;;;5022993;28;20519;-76
2023/09/15 10:20:43;;;;;;;5.00;4.50;;;23.40;68.60;;;;;;5013916;28;20091;-76
2023/09/15 10:23:11;;;;;;;5.18;4.68;;;23.30;68.70;;;;;;5014683;28;20062;-77
2023/09/15 10:25:52;;;;;;;5.50;4.40;;;23.30;68.80;;;;;;5013137;28;20033;-76
2023/09/15 10:28:19;;;;;;;4.18;3.78;;;23.30;68.80;;;;;;5033814;28;20029;-76
2023/09/15 10:30:46;;;;;;;5.50;4.32;;;23.40;68.90;;;;;;5033944;28;20460;-76
2023/09/15 10:33:12;;;;;;;4.13;3.72;;;23.50;68.80;;;;;;5034094;28;20072;-76
2023/09/15 10:35:39;;;;;;;4.55;4.15;;;23.50;68.70;;;;;;5034029;28;20029;-76
2023/09/15 10:38:05;;;;;;;4.97;4.28;;;23.60;68.60;;;;;;5032293;28;20083;-76
2023/09/15 10:40:48;;;;;;;4.47;4.07;;;23.70;68.60;;;;;;5033465;28;21115;-77
2023/09/15 10:43:17;;;;;;;4.60;4.15;;;23.80;68.50;;;;;;5033815;28;20029;-77
2023/09/15 10:45:57;;;;;;;4.90;4.32;;;23.90;68.30;;;;;;5033876;28;20033;-77
2023/09/15 10:48:52;;;;;;;4.70;4.13;;;23.90;68.10;;;;;;5014140;28;20026;-77
2023/09/15 10:51:19;;;;;;;5.90;4.82;;;24.00;68.20;;;;;;5014204;28;20042;-77
2023/09/15 10:53:50;;;;;;;5.18;4.40;;;24.00;67.90;;;;;;5012262;28;20046;-77
2023/09/15 10:56:17;;;;;;;4.85;4.35;;;24.00;67.90;;;;;;5013872;28;20038;-77
2023/09/15 10:58:46;;;;;;;5.15;4.65;;;24.00;67.90;;;;;;5013834;28;20037;-77
2023/09/15 11:01:13;;;;;;;5.15;3.95;;;24.00;67.90;;;;;;5013771;28;20465;-77
2023/09/15 11:03:40;;;;;;;4.97;4.40;;;24.00;67.80;;;;;;5013883;28;20030;-77
2023/09/15 11:06:10;;;;;;;4.88;4.20;;;23.90;67.80;;;;;;5014140;28;20030;-77
2023/09/15 11:08:36;;;;;;;4.82;4.30;;;23.90;67.70;;;;;;5031672;28;20523;-77
2023/09/15 11:11:10;;;;;;;4.90;4.40;;;23.90;67.70;;;;;;5032148;28;20030;-76
2023/09/15 11:13:37;;;;;;;5.50;4.50;;;23.80;67.80;;;;;;5032347;28;20049;-77
2023/09/15 11:16:03;;;;;;;5.00;4.25;;;23.80;67.90;;;;;;5033280;28;20420;-77
2023/09/15 11:18:33;;;;;;;5.50;4.80;;;23.80;67.90;;;;;;5013283;28;20066;-77
2023/09/15 11:20:59;;;;;;;5.97;4.88;;;23.70;67.90;;;;;;5015953;28;20025;-77
2023/09/15 11:23:25;;;;;;;5.10;4.60;;;23.70;68.00;;;;;;5014033;28;20372;-77
2023/09/15 11:26:01;;;;;;;4.78;4.25;;;23.70;68.10;;;;;;5013524;28;20101;-77
2023/09/15 11:28:28;;;;;;;5.00;4.50;;;23.60;68.10;;;;;;5035625;28;20053;-77
2023/09/15 11:30:54;;;;;;;5.25;4.47;;;23.60;68.10;;;;;;5037304;28;20034;-77
2023/09/15 11:33:20;;;;;;;5.18;4.68;;;23.60;68.20;;;;;;5037535;28;20036;-77
2023/09/15 11:35:49;;;;;;;4.78;4.28;;;23.60;68.30;;;;;;5037310;28;20033;-77
2023/09/15 11:38:14;;;;;;;4.85;4.35;;;23.60;68.40;;;;;;5018367;28;20050;-77
2023/09/15 11:40:51;;;;;;;4.90;4.40;;;23.60;68.40;;;;;;5017310;28;20053;-78
2023/09/15 11:43:21;;;;;;;5.00;4.50;;;23.70;68.50;;;;;;5018368;28;20472;-82
2023/09/15 11:45:48;;;;;;;5.35;4.55;;;23.70;68.50;;;;;;5020640;28;20036;-79
2023/09/15 11:48:14;;;;;;;4.85;4.35;;;23.70;68.50;;;;;;5034213;28;20083;-81
2023/09/15 11:50:40;;;;;;;4.85;4.22;;;23.80;68.60;;;;;;5031352;28;20033;-77
2023/09/15 11:53:05;;;;;;;66.38;59.80;;;23.80;68.50;;;;;;5026254;28;20458;-78
2023/09/15 11:55:32;;;;;;;75.45;67.60;;;23.90;68.50;;;;;;5032255;28;20045;-78
2023/09/15 11:57:58;;;;;;;5.50;5.00;;;23.90;68.50;;;;;;5029343;28;20032;-75
2023/09/15 12:00:27;;;;;;;5.25;4.60;;;23.90;68.40;;;;;;5023797;28;20026;-76
2023/09/15 12:02:54;;;;;;;4.88;4.20;;;23.80;68.40;;;;;;5041643;28;20029;-75
2023/09/15 12:05:21;;;;;;;4.60;4.20;;;23.80;68.40;;;;;;5047859;28;20025;-75
2023/09/15 12:07:48;;;;;;;4.22;3.80;;;23.80;68.50;;;;;;5039877;28;20032;-74
2023/09/15 12:10:18;;;;;;;4.10;3.70;;;23.90;68.40;;;;;;5036528;28;20025;-74
2023/09/15 12:12:47;;;;;;;4.50;3.90;;;23.90;68.40;;;;;;5035230;28;20030;-74
2023/09/15 12:15:16;;;;;;;4.55;3.70;;;23.90;68.20;;;;;;5035024;28;20026;-75
2023/09/15 12:17:44;;;;;;;4.57;3.63;;;23.90;68.20;;;;;;5016901;28;20026;-74
2023/09/15 12:20:11;;;;;;;4.03;3.63;;;23.90;68.10;;;;;;5015448;28;20030;-75
2023/09/15 12:22:40;;;;;;;4.13;3.30;;;24.00;68.10;;;;;;5015246;28;20029;-74
2023/09/15 12:25:06;;;;;;;4.07;3.67;;;24.00;67.90;;;;;;5016419;28;20084;-75
2023/09/15 12:27:32;;;;;;;3.70;3.35;;;24.10;67.90;;;;;;5035975;28;20037;-76
2023/09/15 12:30:02;;;;;;;4.03;3.28;;;24.10;67.70;;;;;;5056337;28;20028;-78
2023/09/15 12:32:31;;;;;;;4.13;3.67;;;24.20;67.70;;;;;;5054694;28;20095;-79
2023/09/15 12:34:57;;;;;;;4.53;3.10;;;24.30;67.70;;;;;;5046833;28;20115;-75
2023/09/15 12:37:27;;;;;;;3.83;3.47;;;24.40;67.40;;;;;;5045251;28;20029;-78
2023/09/15 12:39:53;;;;;;;3.78;3.38;;;24.50;67.10;;;;;;5043220;28;20379;-76
2023/09/15 12:42:18;;;;;;;4.03;3.40;;;24.50;66.80;;;;;;5043911;28;20025;-75
2023/09/15 12:44:44;;;;;;;4.72;3.60;;;24.60;66.70;;;;;;5045600;28;20029;-71
2023/09/15 12:47:10;;;;;;;4.45;4.03;;;24.60;66.40;;;;;;5026363;28;20499;-72
2023/09/15 12:49:37;;;;;;;4.28;3.80;;;24.60;66.20;;;;;;5025847;28;20029;-73
2023/09/15 12:52:03;;;;;;;33.35;30.13;;;24.50;66.10;;;;;;5021903;28;20504;-74
2023/09/15 12:54:29;;;;;;;4.45;3.75;;;24.50;66.20;;;;;;5023168;28;20100;-70
2023/09/15 12:56:56;;;;;;;28.25;25.48;;;24.40;66.30;;;;;;5016286;28;20030;-72
2023/09/15 12:59:24;;;;;;;5.60;3.72;;;24.40;66.10;;;;;;5028008;28;20030;-71
2023/09/15 13:01:49;;;;;;;4.32;3.92;;;24.30;66.20;;;;;;5027443;28;20076;-69
2023/09/15 13:04:15;;;;;;;88.18;78.55;;;24.30;67.00;;;;;;5030934;28;20480;-70
2023/09/15 13:06:41;;;;;;;6.03;5.40;;;24.20;66.40;;;;;;5029887;28;20033;-69
2023/09/15 13:09:08;;;;;;;5.82;4.80;;;24.30;66.40;;;;;;5023388;28;20036;-69
2023/09/15 13:11:38;;;;;;;4.82;4.07;;;24.20;66.40;;;;;;5023899;28;20057;-70
2023/09/15 13:14:05;;;;;;;4.63;4.00;;;24.20;66.50;;;;;;5028506;28;20076;-68
2023/09/15 13:16:31;;;;;;;4.55;4.07;;;24.20;66.40;;;;;;5017062;28;20030;-69
2023/09/15 13:18:56;;;;;;;4.93;4.00;;;24.30;66.40;;;;;;5020732;28;20031;-69
2023/09/15 13:21:23;;;;;;;4.75;4.25;;;24.20;66.30;;;;;;5034536;28;20093;-69
2023/09/15 13:23:49;;;;;;;4.50;4.07;;;24.20;66.30;;;;;;5042698;28;20033;-69
2023/09/15 13:26:15;;;;;;;4.47;4.05;;;24.20;66.30;;;;;;5030237;28;20475;-68
2023/09/15 13:28:40;;;;;;;4.68;4.05;;;24.10;66.40;;;;;;5026049;28;20036;-68
2023/09/15 13:31:06;;;;;;;4.50;4.00;;;24.00;66.50;;;;;;5024324;28;20083;-68
2023/09/15 13:33:32;;;;;;;5.30;3.92;;;23.90;66.60;;;;;;5027066;28;20040;-68
2023/09/15 13:35:58;;;;;;;4.93;4.43;;;23.80;66.70;;;;;;5034097;28;20041;-68
2023/09/15 13:38:24;;;;;;;5.22;4.03;;;23.80;66.90;;;;;;5035047;28;20033;-68
2023/09/15 13:40:49;;;;;;;4.93;4.43;;;23.70;67.00;;;;;;5033599;28;20040;-68
2023/09/15 13:43:15;;;;;;;4.72;4.22;;;23.70;67.20;;;;;;5035037;28;20460;-67
2023/09/15 13:45:51;;;;;;;4.75;4.25;;;23.80;67.20;;;;;;5016403;28;20026;-70
2023/09/15 13:48:18;;;;;;;4.70;4.20;;;23.80;67.00;;;;;;5014013;28;20053;-69
2023/09/15 13:50:43;;;;;;;4.72;4.32;;;23.90;66.70;;;;;;5022057;28;20029;-69
2023/09/15 13:53:09;;;;;;;5.00;4.50;;;23.80;66.50;;;;;;5035025;28;20036;-70
2023/09/15 13:55:34;;;;;;;5.28;4.40;;;23.80;66.30;;;;;;5035656;28;20053;-74
2023/09/15 13:58:00;;;;;;;5.05;4.32;;;23.80;66.20;;;;;;5021161;28;20026;-75
2023/09/15 14:00:26;;;;;;;5.32;4.50;;;23.90;66.80;;;;;;5015849;28;20030;-75
2023/09/15 14:02:51;;;;;;;5.00;4.15;;;23.90;66.00;;;;;;5014975;28;20030;-75
2023/09/15 14:05:17;;;;;;;5.28;4.18;;;23.90;66.10;;;;;;5026125;28;20437;-75
2023/09/15 14:07:43;;;;;;;5.53;4.38;;;23.90;66.00;;;;;;5034442;28;20426;-75
2023/09/15 14:10:09;;;;;;;5.60;5.10;;;23.90;65.90;;;;;;5031163;28;20029;-72
2023/09/15 14:12:34;;;;;;;49.35;44.10;;;23.80;65.70;;;;;;5019003;28;20038;-68
2023/09/15 14:15:00;;;;;;;6.15;5.20;;;23.80;65.80;;;;;;5015807;28;20080;-68
2023/09/15 14:17:26;;;;;;;5.63;4.63;;;23.80;66.00;;;;;;5014877;28;20029;-68
2023/09/15 14:19:55;;;;;;;5.57;4.35;;;23.80;66.00;;;;;;5015180;28;20030;-68
2023/09/15 14:22:21;;;;;;;5.22;4.07;;;23.80;65.80;;;;;;5019354;28;20044;-68
2023/09/15 14:24:47;;;;;;;5.22;4.30;;;23.80;65.80;;;;;;5033939;28;20029;-67
2023/09/15 14:27:13;;;;;;;4.88;3.58;;;23.90;65.90;;;;;;5034054;28;20482;-68
2023/09/15 14:29:38;;;;;;;4.07;3.67;;;23.90;65.80;;;;;;5034359;28;20045;-67
2023/09/15 14:32:05;;;;;;;7.50;4.25;;;23.90;65.70;;;;;;5014133;28;20049;-67
2023/09/15 14:34:31;;;;;;;5.10;4.32;;;23.90;65.70;;;;;;5013938;28;20120;-67
2023/09/15 14:37:00;;;;;;;6.15;4.22;;;23.90;65.60;;;;;;5014216;28;20153;-68
2023/09/15 14:39:26;;;;;;;5.25;4.25;;;23.90;65.60;;;;;;5012794;28;20381;-67
2023/09/15 14:41:52;;;;;;;5.00;3.67;;;23.90;65.50;;;;;;5029384;28;20033;-68
2023/09/15 14:44:21;;;;;;;4.68;4.18;;;23.90;65.50;;;;;;5032450;28;20037;-68
2023/09/15 14:46:47;;;;;;;5.20;4.28;;;23.90;65.40;;;;;;5033857;28;20028;-67
2023/09/15 14:49:17;;;;;;;4.80;4.20;;;23.80;65.30;;;;;;5032381;28;20075;-68
2023/09/15 14:51:43;;;;;;;5.75;4.20;;;23.80;65.40;;;;;;5017899;28;20034;-68
2023/09/15 14:54:09;;;;;;;5.32;4.82;;;23.70;65.40;;;;;;5012588;28;20081;-68
2023/09/15 14:56:35;;;;;;;4.80;4.30;;;23.70;65.50;;;;;;5012700;28;20483;-69
2023/09/15 14:59:02;;;;;;;6.22;4.35;;;23.70;65.60;;;;;;5013929;28;20384;-67
2023/09/15 15:01:27;;;;;;;118.47;106.10;;;23.70;65.60;;;;;;5022727;28;20421;-69
2023/09/15 15:03:53;;;;;;;5.57;4.88;;;23.70;65.70;;;;;;5032878;28;20117;-67
2023/09/15 15:06:19;;;;;;;6.15;5.13;;;23.70;65.70;;;;;;5033455;28;20033;-67
2023/09/15 15:08:45;;;;;;;6.30;5.00;;;23.60;65.60;;;;;;5031586;28;20104;-67
2023/09/15 15:11:11;;;;;;;7.22;5.18;;;23.60;65.60;;;;;;5031407;28;20387;-67
2023/09/15 15:13:36;;;;;;;22.05;19.50;;;23.50;65.50;;;;;;5033148;28;20029;-70
2023/09/15 15:16:04;;;;;;;5.95;5.05;;;23.50;65.60;;;;;;5031848;28;20456;-67
2023/09/15 15:18:33;;;;;;;5.78;5.18;;;23.50;65.60;;;;;;5018328;28;20490;-67
2023/09/15 15:20:58;;;;;;;5.50;4.68;;;23.30;65.50;;;;;;5012093;28;20041;-67
2023/09/15 15:23:24;;;;;;;5.75;4.90;;;23.30;65.70;;;;;;5013375;28;20022;-67
2023/09/15 15:25:50;;;;;;;6.13;5.10;;;23.30;65.70;;;;;;5013577;28;20075;-67
2023/09/15 15:28:16;;;;;;;6.60;5.65;;;23.20;65.70;;;;;;5024407;28;20037;-67
2023/09/15 15:30:42;;;;;;;5.80;5.03;;;23.10;65.80;;;;;;5033166;28;20029;-67
2023/09/15 15:33:08;;;;;;;5.78;4.70;;;23.00;65.80;;;;;;5032975;28;20109;-67
2023/09/15 15:35:34;;;;;;;6.22;5.20;;;23.00;65.90;;;;;;5033033;28;20030;-67
2023/09/15 15:38:00;;;;;;;7.50;5.40;;;22.90;65.90;;;;;;5017496;28;20026;-68
2023/09/15 15:40:26;;;;;;;6.47;5.72;;;22.90;66.00;;;;;;5033249;28;20395;-68
2023/09/15 15:42:53;;;;;;;6.38;5.78;;;22.80;66.10;;;;;;5026269;28;20026;-68
2023/09/15 15:45:19;;;;;;;6.60;5.25;;;22.70;66.10;;;;;;5013154;28;20033;-69
2023/09/15 15:47:44;;;;;;;5.88;5.25;;;22.80;66.20;;;;;;5012173;28;20037;-68
2023/09/15 15:50:10;;;;;;;7.32;5.72;;;22.70;66.20;;;;;;5013192;28;20193;-68
2023/09/15 15:52:36;;;;;;;6.68;5.90;;;22.60;66.20;;;;;;5013383;28;20056;-69
2023/09/15 15:55:01;;;;;;;7.50;6.15;;;22.60;66.30;;;;;;5018606;28;20460;-68
2023/09/15 15:57:27;;;;;;;8.80;6.63;;;22.60;66.30;;;;;;5014890;28;20083;-69
2023/09/15 15:59:52;;;;;;;7.32;6.22;;;22.60;66.20;;;;;;5032437;28;20064;-68
2023/09/15 16:02:18;;;;;;;7.63;6.30;;;22.50;66.30;;;;;;5031809;28;20037;-68
2023/09/15 16:04:45;;;;;;;8.52;6.28;;;22.50;66.30;;;;;;5031649;28;20029;-68
2023/09/15 16:07:10;;;;;;;7.65;6.57;;;22.40;66.30;;;;;;5029295;28;20026;-69
2023/09/15 16:09:36;;;;;;;7.32;6.13;;;22.40;66.40;;;;;;5029856;28;20391;-68
2023/09/15 16:12:05;;;;;;;7.75;5.97;;;22.30;66.30;;;;;;5011456;28;20049;-68
2023/09/15 16:14:32;;;;;;;7.25;5.95;;;22.30;66.40;;;;;;5015215;28;20049;-68
2023/09/15 16:16:58;;;;;;;8.15;6.55;;;22.20;66.40;;;;;;5016448;28;20429;-68
2023/09/15 16:19:24;;;;;;;6.63;5.55;;;22.10;66.60;;;;;;5016834;28;20041;-68
2023/09/15 16:21:50;;;;;;;9.40;6.38;;;22.10;66.60;;;;;;5016646;28;20041;-74
2023/09/15 16:24:15;;;;;;;7.35;5.82;;;22.00;66.70;;;;;;5017822;28;20030;-73
2023/09/15 16:26:41;;;;;;;8.52;6.75;;;22.00;66.90;;;;;;5036708;28;20032;-74
2023/09/15 16:29:07;;;;;;;7.47;6.05;;;22.00;66.80;;;;;;5028909;28;20052;-73
2023/09/15 16:31:33;;;;;;;9.07;5.88;;;21.90;66.90;;;;;;5026610;28;20036;-73
2023/09/15 16:33:59;;;;;;;7.25;5.93;;;21.90;67.00;;;;;;5027050;28;20072;-73
2023/09/15 16:36:25;;;;;;;7.57;6.07;;;21.90;67.10;;;;;;5034968;28;20030;-74